createdAt,value
2017-08-01T00:00:22.996Z,95459.19
2017-08-01T00:02:50.509Z,95452.83
2017-08-01T00:05:18.022Z,95451.81
2017-08-01T00:07:45.625Z,95452.48
2017-08-01T00:10:13.214Z,95460.06
2017-08-01T00:12:40.719Z,95457.42
2017-08-01T00:15:08.333Z,95453.50
2017-08-01T00:17:35.830Z,95451.91
2017-08-01T00:20:10.976Z,95453.28
2017-08-01T00:22:38.510Z,95456.88
2017-08-01T00:25:06.024Z,95449.72
2017-08-01T00:27:33.569Z,95450.37
2017-08-01T00:30:01.097Z,95447.24
2017-08-01T00:32:28.602Z,95449.26
2017-08-01T00:34:56.156Z,95455.12
2017-08-01T00:37:23.664Z,95457.64
2017-08-01T00:39:58.863Z,95458.05
2017-08-01T00:42:26.369Z,95459.00
2017-08-01T00:44:53.877Z,95464.17
2017-08-01T00:47:21.417Z,95458.13
2017-08-01T00:59:57.010Z,95469.25
2017-08-01T01:02:24.510Z,95461.04
2017-08-01T01:04:52.014Z,95474.28
2017-08-01T01:07:19.578Z,95476.98
2017-08-01T01:19:55.425Z,95480.52
2017-08-01T01:22:22.967Z,95478.42
2017-08-01T01:24:50.526Z,95482.83
2017-08-01T01:27:18.027Z,95481.86
2017-08-01T01:29:45.542Z,95485.12
2017-08-01T01:32:13.078Z,95481.13
2017-08-01T01:34:40.581Z,95481.66
2017-08-01T01:37:08.132Z,95486.09
2017-08-01T01:39:43.462Z,95480.23
2017-08-01T01:42:11.029Z,95483.69
2017-08-01T01:44:38.557Z,95489.63
2017-08-01T01:47:06.052Z,95480.91
2017-08-01T01:49:33.594Z,95487.66
2017-08-01T01:52:01.093Z,95481.54
2017-08-01T01:54:28.626Z,95483.01
2017-08-01T01:56:56.138Z,95484.32
2017-08-01T01:59:30.603Z,95486.13
2017-08-01T02:01:58.100Z,95490.08
2017-08-01T02:04:25.598Z,95496.08
2017-08-01T02:06:53.144Z,95488.13
2017-08-01T02:19:28.462Z,95487.30
2017-08-01T02:21:56.000Z,95493.70
2017-08-01T02:24:23.549Z,95487.67
2017-08-01T02:26:51.067Z,95492.76
2017-08-01T02:29:18.564Z,95495.19
2017-08-01T02:31:46.115Z,95491.30
2017-08-01T02:34:13.673Z,95494.23
2017-08-01T02:36:41.174Z,95491.30
2017-08-01T02:39:15.905Z,95494.06
2017-08-01T02:41:43.409Z,95491.55
2017-08-01T02:44:10.917Z,95486.50
2017-08-01T02:46:38.466Z,95492.59
2017-08-01T02:49:05.979Z,95485.13
2017-08-01T02:51:33.478Z,95490.02
2017-08-01T02:54:01.015Z,95495.34
2017-08-01T02:56:28.551Z,95493.53
2017-08-01T02:59:03.162Z,95492.88
2017-08-01T03:01:30.705Z,95488.87
2017-08-01T03:03:58.205Z,95485.89
2017-08-01T03:06:25.749Z,95491.63
2017-08-01T03:08:53.285Z,95491.66
2017-08-01T03:11:20.782Z,95490.82
2017-08-01T03:13:48.335Z,95492.17
2017-08-01T03:16:15.840Z,95492.12
2017-08-01T03:18:43.382Z,95488.81
2017-08-01T03:21:10.946Z,95498.88
2017-08-01T03:23:38.452Z,95498.66
2017-08-01T03:26:05.957Z,95497.98
2017-08-01T03:28:40.782Z,95495.66
2017-08-01T03:31:08.326Z,95505.81
2017-08-01T03:33:35.870Z,95508.03
2017-08-01T03:36:03.446Z,95505.36
2017-08-01T03:38:30.937Z,95499.64
2017-08-01T03:40:58.466Z,95505.38
2017-08-01T03:43:25.992Z,95502.84
2017-08-01T03:45:53.521Z,95506.00
2017-08-01T03:48:21.124Z,95503.14
2017-08-01T03:50:48.684Z,95508.06
2017-08-01T03:53:16.176Z,95505.14
2017-08-01T03:55:43.679Z,95501.67
2017-08-01T03:58:11.224Z,95502.17
2017-08-01T04:00:38.877Z,95507.56
2017-08-01T04:03:06.445Z,95513.75
2017-08-01T04:05:34.005Z,95513.31
2017-08-01T04:08:01.526Z,95515.83
2017-08-01T04:10:29.106Z,95517.52
2017-08-01T04:12:56.692Z,95525.70
2017-08-01T04:15:24.226Z,95519.87
2017-08-01T04:17:51.748Z,95528.41
2017-08-01T04:20:19.321Z,95531.33
2017-08-01T04:22:46.828Z,95528.09
2017-08-01T04:25:14.408Z,95531.34
2017-08-01T04:27:42.000Z,95531.09
2017-08-01T04:30:09.721Z,95534.43
2017-08-01T04:32:37.236Z,95539.70
2017-08-01T04:35:04.808Z,95543.81
2017-08-01T04:37:32.340Z,95542.28
2017-08-01T04:39:59.900Z,95540.72
2017-08-01T04:42:27.462Z,95538.37
2017-08-01T04:44:54.966Z,95537.41
2017-08-01T04:47:22.611Z,95540.25
2017-08-01T04:49:50.141Z,95545.36
2017-08-01T04:52:17.697Z,95547.83
2017-08-01T04:54:45.267Z,95553.48
2017-08-01T04:57:12.933Z,95553.09
2017-08-01T04:59:40.665Z,95559.05
2017-08-01T05:02:08.342Z,95549.40
2017-08-01T05:04:35.990Z,95550.69
2017-08-01T05:07:03.549Z,95555.75
2017-08-01T05:09:31.109Z,95554.80
2017-08-01T05:11:58.687Z,95553.73
2017-08-01T05:14:26.237Z,95560.41
2017-08-01T05:16:53.793Z,95564.74
2017-08-01T05:19:21.306Z,95571.45
2017-08-01T05:21:48.918Z,95568.45
2017-08-01T05:24:16.427Z,95569.50
2017-08-01T05:26:44.574Z,95565.36
2017-08-01T05:29:12.187Z,95569.31
2017-08-01T05:31:40.103Z,95573.77
2017-08-01T05:34:08.288Z,95573.43
2017-08-01T05:36:35.818Z,95572.86
2017-08-01T05:39:03.657Z,95575.81
2017-08-01T05:41:31.240Z,95573.79
2017-08-01T05:43:59.121Z,95577.83
2017-08-01T05:46:27.106Z,95571.88
2017-08-01T05:49:27.025Z,95572.88
2017-08-01T05:51:55.991Z,95576.56
2017-08-01T05:54:24.595Z,95572.94
2017-08-01T05:56:53.038Z,95577.33
2017-08-01T06:29:05.040Z,95576.33
2017-08-01T06:31:49.016Z,95570.06
2017-08-01T06:34:25.150Z,95565.83
2017-08-01T06:37:22.043Z,95570.28
2017-08-01T06:39:53.898Z,95565.97
2017-08-01T06:42:37.648Z,95566.27
2017-08-01T06:45:12.346Z,95562.50
2017-08-01T06:47:40.739Z,95567.44
2017-08-01T06:50:18.977Z,95568.17
2017-08-01T06:52:51.948Z,95563.94
2017-08-01T06:55:30.755Z,95571.14
2017-08-01T06:58:06.131Z,95572.06
2017-08-01T08:29:21.174Z,95570.36
2017-08-01T08:54:55.598Z,95559.50
2017-08-01T08:57:30.748Z,95556.42
2017-08-01T09:00:39.577Z,95561.12
2017-08-01T09:03:10.347Z,95559.92
2017-08-01T09:08:52.161Z,95556.64
2017-08-01T09:11:26.146Z,95548.45
2017-08-01T09:14:00.300Z,95544.55
2017-08-01T09:50:06.992Z,95542.45
2017-08-01T11:19:16.955Z,95484.55
2017-08-01T11:21:53.211Z,95484.65
2017-08-01T11:24:37.392Z,95478.19
2017-08-01T11:27:21.783Z,95478.82
2017-08-01T11:34:04.046Z,95466.09
2017-08-01T12:03:58.182Z,95452.94
2017-08-01T12:13:00.520Z,95433.53
2017-08-01T12:16:01.926Z,95433.06
2017-08-01T12:22:17.042Z,95429.42
2017-08-01T12:25:11.068Z,95436.63
2017-08-01T12:27:57.970Z,95433.70
2017-08-01T13:02:04.171Z,95429.06
2017-08-01T13:04:59.348Z,95425.45
2017-08-01T13:23:48.252Z,95411.77
2017-08-01T13:26:15.982Z,95418.28
2017-08-01T13:28:43.800Z,95419.20
2017-08-01T13:31:13.189Z,95415.39
2017-08-01T13:33:46.806Z,95409.54
2017-08-01T13:36:23.524Z,95407.78
2017-08-01T13:38:52.900Z,95407.31
2017-08-01T13:41:20.454Z,95415.95
2017-08-01T13:43:48.171Z,95415.77
2017-08-01T13:46:15.722Z,95416.80
2017-08-01T13:48:43.364Z,95419.14
2017-08-01T13:51:11.400Z,95415.46
2017-08-01T13:53:39.233Z,95421.20
2017-08-01T13:56:06.807Z,95421.73
2017-08-01T13:58:34.448Z,95417.41
2017-08-01T14:01:02.151Z,95408.88
2017-08-01T14:03:29.829Z,95419.78
2017-08-01T14:05:57.564Z,95417.80
2017-08-01T14:08:26.731Z,95412.22
2017-08-01T14:10:54.453Z,95413.59
2017-08-01T14:13:21.986Z,95419.28
2017-08-01T14:15:49.627Z,95418.28
2017-08-01T14:18:18.208Z,95417.94
2017-08-01T14:20:45.930Z,95428.75
2017-08-01T14:23:13.643Z,95428.22
2017-08-01T14:25:41.415Z,95430.25
2017-08-01T14:28:09.079Z,95434.33
2017-08-01T14:30:36.724Z,95439.12
2017-08-01T14:33:04.267Z,95434.87
2017-08-01T14:35:31.844Z,95434.83
2017-08-01T14:37:59.425Z,95428.73
2017-08-01T14:40:34.197Z,95418.72
2017-08-01T14:43:01.804Z,95416.80
2017-08-01T14:45:29.362Z,95423.34
2017-08-01T14:47:56.957Z,95421.69
2017-08-01T14:50:24.585Z,95425.25
2017-08-01T14:52:52.186Z,95416.06
2017-08-01T14:55:19.774Z,95423.75
2017-08-01T14:57:47.347Z,95417.41
2017-08-01T15:00:14.929Z,95425.12
2017-08-01T15:02:42.502Z,95433.34
2017-08-01T15:05:10.108Z,95427.19
2017-08-01T15:07:37.664Z,95416.82
2017-08-01T15:10:13.528Z,95428.09
2017-08-01T15:12:42.273Z,95429.98
2017-08-01T15:15:11.675Z,95428.75
2017-08-01T15:17:39.324Z,95423.16
2017-08-01T15:20:07.033Z,95423.38
2017-08-01T15:22:34.632Z,95416.73
2017-08-01T15:25:02.255Z,95426.88
2017-08-01T15:27:29.765Z,95427.02
2017-08-01T15:29:57.270Z,95425.56
2017-08-01T15:32:24.823Z,95428.44
2017-08-01T15:34:52.405Z,95427.69
2017-08-01T15:37:19.946Z,95428.11
2017-08-01T15:39:54.631Z,95431.81
2017-08-01T15:42:22.194Z,95419.91
2017-08-01T15:44:49.718Z,95425.02
2017-08-01T15:47:17.558Z,95422.48
2017-08-01T15:59:54.065Z,95438.62
2017-08-01T16:02:21.626Z,95430.58
2017-08-01T16:04:49.137Z,95429.69
2017-08-01T16:07:16.650Z,95434.62
2017-08-01T16:19:54.269Z,95435.61
2017-08-01T16:22:21.806Z,95442.45
2017-08-01T16:24:49.309Z,95444.42
2017-08-01T16:27:16.818Z,95443.44
2017-08-01T16:29:44.391Z,95440.13
2017-08-01T16:32:11.897Z,95436.28
2017-08-01T16:34:39.417Z,95442.42
2017-08-01T16:37:07.044Z,95442.80
2017-08-01T16:39:42.329Z,95445.73
2017-08-01T16:42:09.870Z,95452.20
2017-08-01T16:44:37.406Z,95446.00
2017-08-01T16:47:04.905Z,95451.75
2017-08-01T16:49:32.461Z,95450.45
2017-08-01T16:51:59.965Z,95456.81
2017-08-01T16:54:27.469Z,95457.80
2017-08-01T16:56:55.041Z,95460.61
2017-08-01T16:59:22.588Z,95462.06
2017-08-01T17:18:59.893Z,95468.63
2017-08-01T17:21:27.435Z,95468.34
2017-08-01T17:23:54.987Z,95463.66
2017-08-01T17:26:22.526Z,95466.98
2017-08-01T17:28:50.034Z,95471.05
2017-08-01T17:31:17.574Z,95474.23
2017-08-01T17:33:45.069Z,95476.75
2017-08-01T17:36:12.654Z,95481.27
2017-08-01T17:38:40.265Z,95482.64
2017-08-01T17:41:07.769Z,95487.55
2017-08-01T17:43:35.318Z,95491.64
2017-08-01T17:46:02.873Z,95486.63
2017-08-01T17:48:30.374Z,95489.39
2017-08-01T17:50:57.930Z,95479.80
2017-08-01T17:53:25.461Z,95497.23
2017-08-01T17:55:52.971Z,95495.06
2017-08-01T17:58:20.521Z,95501.69
2017-08-01T18:00:48.065Z,95504.02
2017-08-01T18:03:15.568Z,95507.16
2017-08-01T18:05:43.062Z,95511.55
2017-08-01T18:08:10.733Z,95518.40
2017-08-01T18:10:38.289Z,95520.81
2017-08-01T18:13:05.808Z,95518.14
2017-08-01T18:15:33.382Z,95530.56
2017-08-01T18:18:00.901Z,95536.26
2017-08-01T18:20:28.433Z,95532.47
2017-08-01T18:22:55.989Z,95540.08
2017-08-01T18:25:23.614Z,95543.18
2017-08-01T18:27:51.125Z,95545.66
2017-08-01T18:30:18.679Z,95550.25
2017-08-01T18:32:46.292Z,95557.52
2017-08-01T18:35:14.074Z,95563.31
2017-08-01T18:37:41.788Z,95566.27
2017-08-01T18:40:09.324Z,95565.49
2017-08-01T18:42:36.926Z,95565.64
2017-08-01T18:45:04.459Z,95554.91
2017-08-01T18:47:31.963Z,95564.84
2017-08-01T18:49:59.530Z,95564.22
2017-08-01T18:52:27.042Z,95568.94
2017-08-01T18:54:54.615Z,95568.30
2017-08-01T18:57:22.175Z,95570.59
2017-08-01T18:59:49.763Z,95572.83
2017-08-01T19:02:17.305Z,95569.66
2017-08-01T19:04:44.919Z,95568.06
2017-08-01T19:07:12.493Z,95574.69
2017-08-01T19:09:40.098Z,95578.48
2017-08-01T19:12:07.886Z,95578.58
2017-08-01T19:14:35.418Z,95578.61
2017-08-01T19:17:05.922Z,95581.91
2017-08-01T19:19:33.460Z,95577.55
2017-08-01T19:22:00.967Z,95581.47
2017-08-01T19:24:28.511Z,95571.56
2017-08-01T19:26:56.037Z,95568.09
2017-08-01T19:29:23.625Z,95573.73
2017-08-01T19:31:51.141Z,95570.55
2017-08-01T19:34:18.706Z,95569.81
2017-08-01T19:36:46.279Z,95572.67
2017-08-01T19:39:13.817Z,95564.05
2017-08-01T19:41:41.409Z,95574.27
2017-08-01T19:44:08.918Z,95574.20
2017-08-01T19:46:36.413Z,95573.59
2017-08-01T19:49:03.969Z,95576.30
2017-08-01T19:51:31.479Z,95581.14
2017-08-01T19:53:59.026Z,95579.80
2017-08-01T19:56:26.574Z,95568.44
2017-08-01T19:58:54.098Z,95576.36
2017-08-01T20:01:21.667Z,95570.16
2017-08-01T20:03:49.218Z,95570.41
2017-08-01T20:06:16.718Z,95570.75
2017-08-01T20:08:44.261Z,95567.34
2017-08-01T20:11:11.816Z,95567.50
2017-08-01T20:13:39.309Z,95572.63
2017-08-01T20:16:06.874Z,95577.29
2017-08-01T20:18:34.383Z,95575.69
2017-08-01T20:21:01.902Z,95570.31
2017-08-01T20:23:29.457Z,95569.71
2017-08-01T20:25:56.972Z,95578.27
2017-08-01T20:28:24.514Z,95569.30
2017-08-01T20:30:52.017Z,95572.22
2017-08-01T20:33:19.597Z,95572.09
2017-08-01T20:35:47.107Z,95565.80
2017-08-01T20:38:14.720Z,95567.27
2017-08-01T20:40:42.304Z,95569.94
2017-08-01T20:43:09.809Z,95574.13
2017-08-01T20:45:37.440Z,95575.31
2017-08-01T20:48:04.949Z,95574.16
2017-08-01T20:50:32.474Z,95577.90
2017-08-01T20:53:00.006Z,95575.06
2017-08-01T20:55:27.645Z,95573.13
2017-08-01T20:57:55.193Z,95568.25
2017-08-01T21:00:22.702Z,95566.27
2017-08-01T21:02:50.261Z,95561.75
2017-08-01T21:05:17.759Z,95557.92
2017-08-01T21:07:45.263Z,95560.35
2017-08-01T21:10:12.858Z,95558.55
2017-08-01T21:12:40.368Z,95561.42
2017-08-01T21:15:07.929Z,95560.52
2017-08-01T21:17:35.438Z,95563.16
2017-08-01T21:20:02.995Z,95555.80
2017-08-01T21:22:30.534Z,95570.38
2017-08-01T21:24:58.130Z,95566.53
2017-08-01T21:27:25.628Z,95571.41
2017-08-01T21:29:53.154Z,95577.27
2017-08-01T21:32:20.750Z,95576.28
2017-08-01T21:34:48.272Z,95582.58
2017-08-01T21:37:15.773Z,95573.39
2017-08-01T21:39:43.349Z,95564.84
2017-08-01T21:42:10.904Z,95578.36
2017-08-01T21:44:38.434Z,95581.48
2017-08-01T21:47:05.988Z,95568.30
2017-08-01T21:49:33.485Z,95568.28
2017-08-01T21:52:00.988Z,95565.72
2017-08-01T21:54:28.522Z,95566.41
2017-08-01T21:56:56.057Z,95566.45
2017-08-01T21:59:23.597Z,95562.02
2017-08-01T22:01:51.111Z,95564.27
2017-08-01T22:04:18.669Z,95566.70
2017-08-01T22:06:56.447Z,95559.75
2017-08-01T22:09:24.653Z,95549.08
2017-08-01T22:11:52.221Z,95557.72
2017-08-01T22:14:19.803Z,95552.98
2017-08-01T22:16:47.333Z,95549.89
2017-08-01T22:19:15.016Z,95554.97
2017-08-01T22:21:42.625Z,95547.25
2017-08-01T22:24:10.298Z,95547.08
2017-08-01T22:26:37.869Z,95539.36
2017-08-01T22:29:05.584Z,95540.72
2017-08-01T22:31:33.239Z,95541.17
2017-08-01T22:34:00.824Z,95545.03
2017-08-01T22:36:28.475Z,95542.39
2017-08-01T22:38:56.005Z,95543.84
2017-08-01T22:41:23.570Z,95548.19
2017-08-01T22:43:51.076Z,95536.70
2017-08-01T22:46:18.640Z,95539.39
2017-08-01T22:48:46.159Z,95530.48
2017-08-01T22:51:14.129Z,95534.94
2017-08-01T22:53:41.805Z,95530.22
2017-08-01T22:56:20.109Z,95540.70
2017-08-01T22:58:47.649Z,95540.37
2017-08-01T23:01:15.231Z,95544.39
2017-08-01T23:03:42.734Z,95539.22
2017-08-01T23:06:10.277Z,95540.52
2017-08-01T23:08:37.817Z,95548.85
2017-08-01T23:11:05.334Z,95540.89
2017-08-01T23:13:32.875Z,95545.73
2017-08-01T23:16:00.442Z,95539.41
2017-08-01T23:18:27.975Z,95543.06
2017-08-01T23:20:55.477Z,95542.19
2017-08-01T23:23:23.013Z,95540.47
2017-08-01T23:25:50.564Z,95543.84
2017-08-01T23:28:18.078Z,95531.91
2017-08-01T23:30:45.617Z,95538.39
2017-08-01T23:33:13.117Z,95531.16
2017-08-01T23:35:40.674Z,95535.03
2017-08-01T23:38:08.301Z,95535.25
2017-08-01T23:40:35.798Z,95536.53
2017-08-01T23:43:03.424Z,95533.20
2017-08-01T23:45:30.965Z,95532.36
2017-08-01T23:47:58.477Z,95526.62
2017-08-01T23:50:26.009Z,95526.05
2017-08-01T23:52:53.564Z,95523.05
2017-08-01T23:55:21.131Z,95534.01
2017-08-01T23:57:48.628Z,95530.80
